Time;durP1;ratioP1;P1;durP2;ratioP2;P2;SDS_P1;SDS_P2;PMS_P1;PMS_P2;Temp;Humidity;BMP_temperature;BMP_pressure;BME280_temperature;BME280_humidity;BME280_pressure;Samples;Min_cycle;Max_cycle;Signal;HPM_P1;HPM_P2
2023/09/15 00:01:00;;;;;;;3.40;2.10;;;11.00;99.90;;;;;;484321;245;28355;-74
2023/09/15 00:03:02;;;;;;;2.73;2.40;;;11.00;99.90;;;;;;484304;245;28738;-75
2023/09/15 00:05:04;;;;;;;3.43;2.20;;;11.10;99.90;;;;;;484364;245;29618;-73
2023/09/15 00:07:04;;;;;;;2.87;2.10;;;11.10;99.90;;;;;;484341;245;27986;-74
2023/09/15 00:09:06;;;;;;;2.60;1.93;;;11.00;99.90;;;;;;484334;245;28172;-73
2023/09/15 00:11:08;;;;;;;2.67;2.47;;;11.00;99.90;;;;;;484227;245;28087;-73
2023/09/15 00:13:08;;;;;;;4.07;2.17;;;11.00;99.90;;;;;;484322;245;28453;-74
2023/09/15 00:15:13;;;;;;;3.57;2.53;;;11.00;99.90;;;;;;484334;245;28528;-74
2023/09/15 00:17:14;;;;;;;2.50;2.20;;;10.90;99.90;;;;;;484299;245;28050;-74
2023/09/15 00:19:18;;;;;;;3.53;2.30;;;10.90;99.90;;;;;;484301;245;29568;-73
2023/09/15 00:21:19;;;;;;;3.93;2.23;;;10.90;99.90;;;;;;484361;245;27982;-74
2023/09/15 00:23:19;;;;;;;2.93;2.37;;;10.80;99.90;;;;;;484331;245;28703;-73
2023/09/15 00:25:27;;;;;;;2.20;2.00;;;10.90;99.90;;;;;;484314;245;28583;-73
2023/09/15 00:27:28;;;;;;;5.63;2.80;;;10.90;99.90;;;;;;484311;245;28058;-73
2023/09/15 00:29:29;;;;;;;3.50;2.20;;;10.90;99.90;;;;;;484366;245;28435;-75
2023/09/15 00:31:31;;;;;;;3.13;2.27;;;10.90;99.90;;;;;;484333;245;28481;-74
2023/09/15 00:33:44;;;;;;;2.47;2.00;;;10.90;99.90;;;;;;484329;245;28528;-75
2023/09/15 00:35:47;;;;;;;2.10;1.80;;;10.80;99.90;;;;;;484408;245;27866;-73
2023/09/15 00:37:47;;;;;;;2.47;2.27;;;10.70;99.90;;;;;;484356;245;27838;-74
2023/09/15 00:39:48;;;;;;;3.00;2.33;;;10.60;99.90;;;;;;484379;245;27926;-74
2023/09/15 00:41:49;;;;;;;2.67;2.30;;;10.60;99.90;;;;;;484335;245;28460;-73
2023/09/15 00:43:50;;;;;;;2.40;2.20;;;10.50;99.90;;;;;;484370;245;28517;-73
2023/09/15 00:46:02;;;;;;;6.17;2.57;;;10.50;99.90;;;;;;484374;245;28501;-74
2023/09/15 00:48:05;;;;;;;4.07;2.37;;;10.50;99.90;;;;;;484305;245;27882;-74
2023/09/15 00:50:05;;;;;;;1.67;1.57;;;10.50;99.90;;;;;;484292;245;28434;-75
2023/09/15 00:52:07;;;;;;;3.00;1.97;;;10.50;99.90;;;;;;484261;245;27801;-74
2023/09/15 00:54:08;;;;;;;3.33;2.40;;;10.50;99.90;;;;;;484242;245;27919;-74
2023/09/15 00:56:09;;;;;;;4.10;2.00;;;10.50;99.90;;;;;;484282;245;27896;-74
2023/09/15 00:58:19;;;;;;;2.83;2.30;;;10.50;99.90;;;;;;484272;245;28347;-75
2023/09/15 01:00:21;;;;;;;3.20;1.90;;;10.50;99.90;;;;;;484343;245;28293;-74
2023/09/15 01:02:22;;;;;;;2.10;1.90;;;10.50;99.90;;;;;;484350;245;28261;-73
2023/09/15 01:04:23;;;;;;;2.50;2.30;;;10.50;99.90;;;;;;484276;245;28250;-74
2023/09/15 01:06:24;;;;;;;4.10;2.20;;;10.50;99.90;;;;;;484315;245;27941;-74
2023/09/15 01:08:26;;;;;;;2.77;2.27;;;10.60;99.90;;;;;;484260;245;29430;-75
2023/09/15 01:10:27;;;;;;;2.53;2.30;;;10.60;99.90;;;;;;484325;245;29355;-74
2023/09/15 01:12:28;;;;;;;2.50;2.30;;;10.50;99.90;;;;;;484320;245;28389;-73
2023/09/15 01:14:29;;;;;;;3.37;1.97;;;10.50;99.90;;;;;;484272;245;28453;-74
2023/09/15 01:16:31;;;;;;;4.80;2.40;;;10.60;99.90;;;;;;484314;245;28387;-73
2023/09/15 01:18:38;;;;;;;2.47;1.97;;;10.60;99.90;;;;;;484338;245;27909;-73
2023/09/15 01:20:39;;;;;;;2.40;1.97;;;10.60;99.90;;;;;;484350;245;28462;-73
2023/09/15 01:22:40;;;;;;;4.63;2.63;;;10.60;99.90;;;;;;484303;245;28490;-73
2023/09/15 01:24:42;;;;;;;2.07;1.87;;;10.60;99.90;;;;;;484267;245;28530;-74
2023/09/15 01:26:44;;;;;;;5.77;2.73;;;10.60;99.90;;;;;;484319;245;28397;-76
2023/09/15 01:28:45;;;;;;;5.00;2.40;;;10.50;99.90;;;;;;484310;245;28447;-74
2023/09/15 01:30:49;;;;;;;3.33;1.93;;;10.50;99.90;;;;;;484382;244;28576;-74
2023/09/15 01:32:48;;;;;;;6.50;2.40;;;10.40;99.90;;;;;;484270;245;27885;-75
2023/09/15 01:34:49;;;;;;;3.07;2.00;;;10.40;99.90;;;;;;484292;245;28000;-73
2023/09/15 01:36:53;;;;;;;2.17;1.97;;;10.40;99.90;;;;;;484304;245;29208;-73
2023/09/15 01:38:57;;;;;;;2.53;2.20;;;10.40;99.90;;;;;;484289;245;27764;-74
2023/09/15 01:40:58;;;;;;;2.70;2.00;;;10.50;99.90;;;;;;484324;245;28045;-74
2023/09/15 01:43:00;;;;;;;3.80;2.07;;;10.50;99.90;;;;;;484284;245;28220;-73
2023/09/15 01:45:02;;;;;;;2.50;2.10;;;10.50;99.90;;;;;;484263;245;28585;-74
2023/09/15 01:47:05;;;;;;;3.73;2.60;;;10.50;99.90;;;;;;484320;245;27973;-74
2023/09/15 01:49:07;;;;;;;3.07;2.10;;;10.50;99.90;;;;;;484271;245;28590;-74
2023/09/15 01:51:08;;;;;;;4.97;2.20;;;10.50;99.90;;;;;;484293;245;27924;-73
2023/09/15 01:53:09;;;;;;;3.20;2.40;;;10.40;99.90;;;;;;484264;245;27788;-74
2023/09/15 01:55:10;;;;;;;3.40;2.23;;;10.40;99.90;;;;;;484243;245;28562;-77
2023/09/15 01:57:12;;;;;;;3.63;2.20;;;10.50;99.90;;;;;;484294;245;28413;-74
2023/09/15 01:59:13;;;;;;;3.93;1.97;;;10.40;99.90;;;;;;484272;245;28444;-75
2023/09/15 02:01:14;;;;;;;2.77;2.00;;;10.40;99.90;;;;;;484253;245;27929;-74
2023/09/15 02:03:16;;;;;;;7.67;2.77;;;10.50;99.90;;;;;;484266;245;27862;-75
2023/09/15 02:05:17;;;;;;;2.40;1.93;;;10.50;99.90;;;;;;484338;245;28138;-75
2023/09/15 02:07:18;;;;;;;2.50;2.20;;;10.50;99.90;;;;;;484324;245;27801;-74
2023/09/15 02:09:19;;;;;;;3.60;2.20;;;10.50;99.90;;;;;;484299;245;27796;-74
2023/09/15 02:11:25;;;;;;;4.60;2.50;;;10.40;99.90;;;;;;484340;245;28120;-74
2023/09/15 02:13:26;;;;;;;4.63;2.30;;;10.40;99.90;;;;;;484347;245;28029;-74
2023/09/15 02:15:27;;;;;;;2.27;2.07;;;10.40;99.90;;;;;;484309;245;27987;-75
2023/09/15 02:17:30;;;;;;;2.53;2.07;;;10.40;99.90;;;;;;484304;245;27872;-74
2023/09/15 02:19:30;;;;;;;3.37;2.30;;;10.40;99.90;;;;;;484333;245;27893;-73
2023/09/15 02:21:37;;;;;;;4.73;2.67;;;10.40;99.90;;;;;;484368;245;27918;-75
2023/09/15 02:23:38;;;;;;;4.40;2.20;;;10.40;99.90;;;;;;484360;245;28106;-73
2023/09/15 02:25:47;;;;;;;2.80;2.20;;;10.40;99.90;;;;;;484310;245;27899;-74
2023/09/15 02:27:48;;;;;;;3.07;2.00;;;10.40;99.90;;;;;;484372;245;27903;-74
2023/09/15 02:29:51;;;;;;;2.10;1.97;;;10.30;99.90;;;;;;484351;245;28261;-75
2023/09/15 02:31:52;;;;;;;2.57;2.07;;;10.30;99.90;;;;;;484360;245;28002;-74
2023/09/15 02:33:54;;;;;;;3.43;2.07;;;10.30;99.90;;;;;;484306;245;28165;-74
2023/09/15 02:35:55;;;;;;;4.70;2.33;;;10.30;99.90;;;;;;484322;245;28598;-75
2023/09/15 02:37:58;;;;;;;2.43;2.10;;;10.30;99.90;;;;;;484344;245;28398;-74
2023/09/15 02:40:00;;;;;;;5.30;2.23;;;10.30;99.90;;;;;;484316;245;27895;-73
2023/09/15 02:42:01;;;;;;;3.67;2.37;;;10.30;99.90;;;;;;484280;245;28438;-74
2023/09/15 02:44:02;;;;;;;2.70;2.23;;;10.20;99.90;;;;;;484332;245;28214;-75
2023/09/15 02:46:04;;;;;;;3.07;2.17;;;10.20;99.90;;;;;;484323;245;28458;-74
2023/09/15 02:48:06;;;;;;;3.90;2.30;;;10.20;99.90;;;;;;484303;245;28505;-74
2023/09/15 02:50:07;;;;;;;4.97;2.50;;;10.10;99.90;;;;;;484295;245;28288;-75
2023/09/15 02:52:08;;;;;;;2.10;1.80;;;10.10;99.90;;;;;;484377;245;28424;-73
2023/09/15 02:54:09;;;;;;;3.13;2.40;;;10.10;99.90;;;;;;484345;245;27800;-74
2023/09/15 02:56:11;;;;;;;3.20;2.20;;;10.00;99.90;;;;;;484272;245;27933;-73
2023/09/15 02:58:13;;;;;;;3.00;2.20;;;10.00;99.90;;;;;;484286;245;27901;-75
2023/09/15 03:00:13;;;;;;;4.00;2.40;;;10.00;99.90;;;;;;484304;245;27667;-73
2023/09/15 03:02:26;;;;;;;4.10;2.40;;;10.00;99.90;;;;;;484301;245;27900;-74
2023/09/15 03:04:27;;;;;;;2.60;2.00;;;9.90;99.90;;;;;;484344;245;27788;-72
2023/09/15 03:06:28;;;;;;;2.33;2.13;;;9.90;99.90;;;;;;484311;245;28450;-73
2023/09/15 03:08:29;;;;;;;2.20;2.00;;;9.90;99.90;;;;;;484360;245;27863;-74
2023/09/15 03:10:31;;;;;;;4.10;2.57;;;9.80;99.90;;;;;;484239;245;27775;-74
2023/09/15 03:12:32;;;;;;;2.90;2.60;;;9.70;99.90;;;;;;484312;245;27946;-74
2023/09/15 03:14:33;;;;;;;6.50;2.33;;;9.70;99.90;;;;;;484294;245;28018;-74
2023/09/15 03:16:35;;;;;;;4.60;2.50;;;9.70;99.90;;;;;;484317;244;27980;-75
2023/09/15 03:18:37;;;;;;;4.33;2.23;;;9.70;99.90;;;;;;484314;245;27555;-74
2023/09/15 03:20:39;;;;;;;3.77;2.00;;;9.70;99.90;;;;;;484327;245;27679;-74
2023/09/15 03:22:44;;;;;;;2.40;2.20;;;9.80;99.90;;;;;;484306;245;28435;-74
2023/09/15 03:24:45;;;;;;;2.27;2.07;;;9.80;99.90;;;;;;484315;245;28007;-74
2023/09/15 03:26:46;;;;;;;3.40;2.10;;;9.80;99.90;;;;;;484309;245;27920;-73
2023/09/15 03:28:48;;;;;;;2.80;2.23;;;9.80;99.90;;;;;;484340;245;28541;-74
2023/09/15 03:32:59;;;;;;;2.67;2.40;;;9.80;99.90;;;;;;484351;245;27948;-74
2023/09/15 03:35:00;;;;;;;3.93;1.90;;;9.80;99.90;;;;;;484353;245;28022;-75
2023/09/15 03:37:02;;;;;;;2.63;2.00;;;9.80;99.90;;;;;;484278;245;27941;-74
2023/09/15 03:39:06;;;;;;;3.60;2.20;;;9.90;99.90;;;;;;484301;245;28338;-75
2023/09/15 03:41:07;;;;;;;2.80;2.50;;;9.80;99.90;;;;;;484370;242;27923;-73
2023/09/15 03:43:08;;;;;;;4.63;2.33;;;9.80;99.90;;;;;;484322;245;27716;-75
2023/09/15 03:45:10;;;;;;;2.27;2.07;;;9.80;99.90;;;;;;484327;245;27975;-73
2023/09/15 03:47:18;;;;;;;4.30;2.23;;;9.70;99.90;;;;;;484347;245;28324;-74
2023/09/15 03:49:19;;;;;;;3.30;2.63;;;9.70;99.90;;;;;;484297;245;28112;-74
2023/09/15 03:51:29;;;;;;;3.77;2.33;;;9.70;99.90;;;;;;484265;245;28405;-74
2023/09/15 03:53:30;;;;;;;4.10;2.57;;;9.60;99.90;;;;;;484340;245;28015;-74
2023/09/15 03:55:32;;;;;;;2.97;2.40;;;9.70;99.90;;;;;;484309;245;27850;-74
2023/09/15 03:57:33;;;;;;;2.60;2.27;;;9.70;99.90;;;;;;484328;245;27955;-74
2023/09/15 03:59:34;;;;;;;7.87;2.77;;;9.70;99.90;;;;;;484366;245;28311;-75
2023/09/15 04:01:35;;;;;;;3.80;2.30;;;9.60;99.90;;;;;;484351;245;28421;-73
2023/09/15 04:03:38;;;;;;;2.50;2.10;;;9.60;99.90;;;;;;484325;245;28503;-75
2023/09/15 04:05:39;;;;;;;4.80;2.13;;;9.50;99.90;;;;;;484290;245;28004;-74
2023/09/15 04:07:40;;;;;;;2.90;2.00;;;9.50;99.90;;;;;;484328;245;27840;-74
2023/09/15 04:09:42;;;;;;;6.50;2.30;;;9.50;99.90;;;;;;484311;245;28295;-74
2023/09/15 04:11:49;;;;;;;2.87;2.30;;;9.50;99.90;;;;;;484191;245;28464;-73
2023/09/15 04:13:50;;;;;;;2.83;2.23;;;9.50;99.90;;;;;;484308;245;27895;-74
2023/09/15 04:15:51;;;;;;;2.70;1.90;;;9.60;99.90;;;;;;484301;245;27912;-74
2023/09/15 04:17:54;;;;;;;4.27;2.50;;;9.60;99.90;;;;;;484351;245;27794;-75
2023/09/15 04:20:00;;;;;;;4.60;2.53;;;9.60;99.90;;;;;;484268;245;28361;-74
2023/09/15 04:22:01;;;;;;;2.50;2.17;;;9.60;99.90;;;;;;484300;245;27547;-75
2023/09/15 04:24:02;;;;;;;2.17;1.97;;;9.70;99.90;;;;;;484379;245;27910;-75
2023/09/15 04:26:04;;;;;;;2.80;2.13;;;9.70;99.90;;;;;;484339;245;28445;-74
2023/09/15 04:28:11;;;;;;;5.27;2.50;;;9.70;99.90;;;;;;484322;245;28356;-74
2023/09/15 04:30:12;;;;;;;3.00;2.43;;;9.70;99.90;;;;;;484272;245;28497;-76
2023/09/15 04:32:13;;;;;;;2.30;2.10;;;9.60;99.90;;;;;;484315;245;28271;-74
2023/09/15 04:34:15;;;;;;;4.70;2.70;;;9.50;99.90;;;;;;493544;239;28186;-73
2023/09/15 04:36:16;;;;;;;3.20;2.40;;;9.50;99.90;;;;;;497455;238;28279;-73
2023/09/15 04:38:17;;;;;;;4.97;2.40;;;9.40;99.90;;;;;;497497;239;27829;-75
2023/09/15 04:40:18;;;;;;;2.30;2.00;;;9.40;99.90;;;;;;497487;239;27896;-74
2023/09/15 04:42:20;;;;;;;2.67;2.30;;;9.40;99.90;;;;;;497418;239;27921;-74
2023/09/15 04:44:21;;;;;;;2.30;2.10;;;9.40;99.90;;;;;;497536;239;27857;-75
2023/09/15 04:46:22;;;;;;;2.67;2.47;;;9.50;99.90;;;;;;497481;239;27759;-74
2023/09/15 04:48:23;;;;;;;3.63;2.40;;;9.40;99.90;;;;;;497494;239;27888;-75
2023/09/15 04:50:25;;;;;;;2.13;1.90;;;9.40;99.90;;;;;;497456;239;27522;-74
2023/09/15 04:52:26;;;;;;;4.73;2.20;;;9.40;99.90;;;;;;497454;239;28089;-74
2023/09/15 04:54:28;;;;;;;2.37;2.17;;;9.30;99.90;;;;;;497435;239;27936;-74
2023/09/15 04:56:28;;;;;;;2.37;2.17;;;9.40;99.90;;;;;;497488;239;27663;-73
2023/09/15 04:58:30;;;;;;;4.90;2.60;;;9.40;99.90;;;;;;497421;239;28370;-75
2023/09/15 05:00:34;;;;;;;3.20;2.47;;;9.40;99.90;;;;;;497488;239;28326;-73
2023/09/15 05:02:34;;;;;;;3.07;2.10;;;9.40;99.90;;;;;;497468;239;28164;-74
2023/09/15 05:04:35;;;;;;;2.37;2.17;;;9.40;99.90;;;;;;497513;239;27890;-73
2023/09/15 05:06:37;;;;;;;3.03;2.10;;;9.40;99.90;;;;;;497469;239;27742;-74
2023/09/15 05:08:38;;;;;;;3.00;2.33;;;9.40;99.90;;;;;;497484;239;27965;-74
2023/09/15 05:10:39;;;;;;;3.90;3.10;;;9.40;99.90;;;;;;497521;239;28446;-75
2023/09/15 05:12:42;;;;;;;4.03;2.47;;;9.30;99.90;;;;;;497532;239;28297;-74
2023/09/15 05:14:43;;;;;;;3.07;2.07;;;9.30;99.90;;;;;;497481;239;28018;-73
2023/09/15 05:16:44;;;;;;;2.70;2.50;;;9.30;99.90;;;;;;497456;239;28117;-74
2023/09/15 05:18:45;;;;;;;4.97;2.47;;;9.30;99.90;;;;;;497504;239;27736;-74
2023/09/15 05:20:46;;;;;;;6.17;2.60;;;9.30;99.90;;;;;;497537;239;28296;-74
2023/09/15 05:22:48;;;;;;;3.43;2.17;;;9.30;99.90;;;;;;497494;239;28202;-75
2023/09/15 05:24:51;;;;;;;1.90;1.80;;;9.30;99.90;;;;;;497463;239;28426;-73
2023/09/15 05:26:52;;;;;;;3.90;2.50;;;9.30;99.90;;;;;;497492;239;27536;-74
2023/09/15 05:28:54;;;;;;;3.20;2.23;;;9.30;99.90;;;;;;497523;239;27473;-77
2023/09/15 05:30:55;;;;;;;2.10;2.00;;;9.30;99.90;;;;;;497465;239;27654;-74
2023/09/15 05:32:56;;;;;;;4.17;2.57;;;9.30;99.90;;;;;;497456;239;28349;-74
2023/09/15 05:34:57;;;;;;;3.57;2.37;;;9.30;99.90;;;;;;497487;239;28299;-74
2023/09/15 05:36:59;;;;;;;4.40;2.53;;;9.40;99.90;;;;;;497448;239;28445;-74
2023/09/15 05:39:01;;;;;;;6.00;2.60;;;9.40;99.90;;;;;;497473;239;27526;-73
2023/09/15 05:41:03;;;;;;;3.63;2.70;;;9.50;99.90;;;;;;497437;239;28061;-74
2023/09/15 05:43:03;;;;;;;2.43;2.23;;;9.50;99.90;;;;;;497389;239;27707;-74
2023/09/15 05:45:05;;;;;;;4.47;2.40;;;9.50;99.90;;;;;;497461;239;27885;-73
2023/09/15 05:47:06;;;;;;;2.60;2.40;;;9.60;99.90;;;;;;497448;239;28357;-75
2023/09/15 05:49:13;;;;;;;2.53;2.10;;;9.60;99.90;;;;;;497441;239;28274;-74
2023/09/15 05:51:14;;;;;;;3.17;2.50;;;9.60;99.90;;;;;;497324;239;27862;-75
2023/09/15 05:53:15;;;;;;;4.10;2.43;;;9.60;99.90;;;;;;497325;239;27950;-74
2023/09/15 05:55:17;;;;;;;3.87;2.80;;;9.70;99.90;;;;;;497566;239;27834;-75
2023/09/15 05:57:18;;;;;;;4.30;2.20;;;9.70;99.90;;;;;;497552;239;28398;-74
2023/09/15 05:59:19;;;;;;;2.20;2.00;;;9.70;99.90;;;;;;497564;239;28281;-73
2023/09/15 06:01:20;;;;;;;4.50;2.73;;;9.80;99.90;;;;;;497534;239;28075;-74
2023/09/15 06:03:22;;;;;;;2.80;2.27;;;9.80;99.90;;;;;;497476;239;28366;-74
2023/09/15 06:05:25;;;;;;;3.53;2.70;;;9.90;99.90;;;;;;497522;239;28324;-73
2023/09/15 06:07:33;;;;;;;3.80;2.40;;;9.90;99.90;;;;;;497539;239;28275;-75
2023/09/15 06:09:35;;;;;;;4.70;2.57;;;9.90;99.90;;;;;;497564;239;27973;-73
2023/09/15 06:11:36;;;;;;;4.67;2.40;;;10.00;99.90;;;;;;497491;239;27933;-74
2023/09/15 06:13:47;;;;;;;3.43;2.43;;;10.00;99.90;;;;;;497521;239;28307;-74
2023/09/15 06:15:47;;;;;;;4.00;2.30;;;10.10;99.90;;;;;;497492;239;27935;-74
2023/09/15 06:17:49;;;;;;;3.33;2.60;;;10.20;99.90;;;;;;497491;239;28006;-74
2023/09/15 06:19:52;;;;;;;3.00;2.30;;;10.20;99.90;;;;;;497521;239;29035;-74
2023/09/15 06:21:53;;;;;;;5.47;2.60;;;10.30;99.90;;;;;;497541;239;27892;-74
2023/09/15 06:23:54;;;;;;;5.50;3.07;;;10.30;99.90;;;;;;497546;239;27868;-75
2023/09/15 06:25:56;;;;;;;4.87;2.80;;;10.40;99.90;;;;;;497538;239;27908;-74
2023/09/15 06:27:59;;;;;;;3.57;2.50;;;10.50;99.90;;;;;;497551;239;27987;-74
2023/09/15 06:29:58;;;;;;;6.87;3.03;;;10.50;99.90;;;;;;497565;239;28044;-74
2023/09/15 06:31:59;;;;;;;4.87;2.60;;;10.50;99.90;;;;;;497570;239;28398;-74
2023/09/15 06:34:01;;;;;;;5.83;2.93;;;10.60;99.90;;;;;;497506;239;29367;-74
2023/09/15 06:36:08;;;;;;;4.43;2.73;;;10.70;99.90;;;;;;497473;239;28292;-73
2023/09/15 06:38:09;;;;;;;5.47;2.97;;;10.70;99.90;;;;;;497478;239;27968;-73
2023/09/15 06:40:11;;;;;;;3.37;2.90;;;10.80;99.90;;;;;;497522;239;28090;-74
2023/09/15 06:42:12;;;;;;;4.37;2.90;;;10.90;99.90;;;;;;497506;239;28464;-75
2023/09/15 06:44:13;;;;;;;6.00;2.40;;;10.90;99.90;;;;;;497507;239;28442;-74
2023/09/15 06:46:18;;;;;;;4.50;2.40;;;10.90;99.90;;;;;;497266;237;28355;-74
2023/09/15 06:48:15;;;;;;;4.53;2.67;;;10.90;99.90;;;;;;497487;239;28141;-74
2023/09/15 06:50:17;;;;;;;3.33;2.10;;;10.90;99.90;;;;;;497525;239;27943;-76
2023/09/15 06:52:18;;;;;;;3.20;2.90;;;11.00;99.90;;;;;;497467;239;28022;-74
2023/09/15 06:54:19;;;;;;;6.10;2.60;;;11.00;99.90;;;;;;497469;239;27973;-74
2023/09/15 06:56:20;;;;;;;3.67;2.80;;;11.10;99.90;;;;;;497473;239;28013;-73
2023/09/15 06:58:22;;;;;;;2.83;2.40;;;11.20;99.90;;;;;;497526;239;28008;-75
2023/09/15 07:00:23;;;;;;;4.07;2.80;;;11.20;99.90;;;;;;497514;239;28367;-74
2023/09/15 07:02:24;;;;;;;3.43;2.37;;;11.30;99.90;;;;;;497520;239;29279;-72
2023/09/15 07:04:25;;;;;;;6.50;2.80;;;11.40;99.90;;;;;;497421;239;28501;-74
2023/09/15 07:06:33;;;;;;;6.93;3.20;;;11.40;99.90;;;;;;497481;239;28104;-74
2023/09/15 07:08:34;;;;;;;5.20;2.70;;;11.50;99.90;;;;;;497496;239;28175;-73
2023/09/15 07:10:35;;;;;;;6.43;2.87;;;11.50;99.90;;;;;;497482;239;28040;-75
2023/09/15 07:12:36;;;;;;;2.70;2.50;;;11.60;99.90;;;;;;497444;239;28522;-73
2023/09/15 07:14:38;;;;;;;3.23;2.80;;;11.70;99.90;;;;;;497493;239;28831;-73
2023/09/15 07:16:39;;;;;;;5.33;2.53;;;11.80;99.90;;;;;;497420;239;28556;-75
2023/09/15 07:18:43;;;;;;;5.20;2.67;;;11.80;99.90;;;;;;497460;239;28251;-74
2023/09/15 07:20:43;;;;;;;2.40;2.20;;;11.90;99.90;;;;;;497466;239;28222;-73
2023/09/15 07:22:45;;;;;;;3.50;2.57;;;12.00;99.90;;;;;;497454;239;28275;-73
2023/09/15 07:24:46;;;;;;;3.43;2.30;;;12.00;99.90;;;;;;497504;239;28747;-73
2023/09/15 07:28:52;;;;;;;4.40;2.87;;;12.10;99.90;;;;;;497429;239;27959;-74
2023/09/15 07:30:53;;;;;;;3.30;2.47;;;12.20;99.90;;;;;;497482;239;28273;-74
2023/09/15 07:32:55;;;;;;;4.83;3.20;;;12.30;99.90;;;;;;497489;239;29171;-72
2023/09/15 07:35:05;;;;;;;5.57;2.67;;;12.30;99.90;;;;;;497492;239;28725;-74
2023/09/15 07:37:08;;;;;;;7.93;2.47;;;12.40;99.90;;;;;;497484;239;28696;-74
2023/09/15 07:39:15;;;;;;;4.33;2.63;;;12.50;99.90;;;;;;497469;239;28775;-73
2023/09/15 07:41:15;;;;;;;2.60;2.30;;;12.60;99.90;;;;;;497333;239;28676;-74
2023/09/15 07:43:26;;;;;;;7.63;2.60;;;12.70;99.90;;;;;;497474;239;29229;-74
2023/09/15 07:45:27;;;;;;;3.87;2.73;;;12.80;99.90;;;;;;497461;239;27933;-74
2023/09/15 07:47:31;;;;;;;2.70;2.23;;;12.90;99.90;;;;;;497470;239;29161;-74
2023/09/15 07:49:33;;;;;;;2.63;2.43;;;;;;;;;;497460;239;28572;-73
2023/09/15 07:51:36;;;;;;;3.30;2.63;;;13.00;99.90;;;;;;497414;238;26538;-75
2023/09/15 07:53:37;;;;;;;7.97;3.20;;;13.20;99.90;;;;;;497440;239;28428;-75
2023/09/15 07:55:39;;;;;;;4.03;2.83;;;13.20;99.90;;;;;;497506;239;29272;-74
2023/09/15 07:57:40;;;;;;;3.80;2.50;;;13.40;99.90;;;;;;497450;239;28123;-74
2023/09/15 07:59:41;;;;;;;6.17;3.00;;;13.60;99.90;;;;;;497498;239;28678;-74
2023/09/15 08:01:43;;;;;;;3.10;2.33;;;13.60;99.90;;;;;;497447;239;28615;-76
2023/09/15 08:03:45;;;;;;;6.20;2.37;;;13.80;99.90;;;;;;497454;239;28696;-74
2023/09/15 08:05:45;;;;;;;4.57;2.70;;;13.90;99.90;;;;;;497417;239;28701;-74
2023/09/15 08:07:48;;;;;;;3.57;2.40;;;14.10;99.90;;;;;;497550;239;28087;-74
2023/09/15 08:09:56;;;;;;;3.57;2.40;;;14.20;99.90;;;;;;497470;239;28186;-75
2023/09/15 08:11:59;;;;;;;4.97;3.00;;;14.20;99.90;;;;;;497456;239;28258;-74
2023/09/15 08:13:56;;;;;;;4.70;3.07;;;14.20;99.90;;;;;;497456;239;28234;-74
2023/09/15 08:15:58;;;;;;;6.43;3.03;;;14.30;99.90;;;;;;497465;239;28176;-77
2023/09/15 08:17:59;;;;;;;3.10;2.43;;;14.50;99.90;;;;;;497440;239;28760;-74
2023/09/15 08:20:00;;;;;;;4.50;2.57;;;14.50;99.90;;;;;;497450;239;29162;-75
2023/09/15 08:22:01;;;;;;;2.67;2.43;;;14.60;99.90;;;;;;497466;239;28723;-74
2023/09/15 08:24:03;;;;;;;5.13;2.60;;;14.80;99.90;;;;;;497499;239;28365;-76
2023/09/15 08:26:04;;;;;;;3.03;2.63;;;14.90;99.90;;;;;;497507;239;28542;-74
2023/09/15 08:28:09;;;;;;;3.57;2.70;;;15.10;99.90;;;;;;497468;239;28370;-75
2023/09/15 08:30:10;;;;;;;2.93;2.63;;;15.20;99.90;;;;;;497468;239;28738;-73
2023/09/15 08:32:11;;;;;;;3.93;2.80;;;15.30;99.90;;;;;;497462;239;29248;-74
2023/09/15 08:34:12;;;;;;;4.10;3.70;;;15.50;99.90;;;;;;497476;239;29216;-73
2023/09/15 08:36:14;;;;;;;6.20;3.60;;;15.90;99.90;;;;;;497465;239;29150;-76
2023/09/15 08:38:15;;;;;;;7.00;4.63;;;15.90;99.90;;;;;;497475;239;29184;-75
2023/09/15 08:40:16;;;;;;;4.40;4.00;;;16.20;99.90;;;;;;497486;239;28724;-73
2023/09/15 08:42:24;;;;;;;5.87;4.07;;;16.40;99.90;;;;;;497412;239;28683;-76
2023/09/15 08:44:25;;;;;;;7.00;4.23;;;16.50;99.90;;;;;;497448;239;28722;-75
2023/09/15 08:46:29;;;;;;;5.80;3.97;;;16.70;99.90;;;;;;497470;239;28814;-75
2023/09/15 08:48:30;;;;;;;6.80;3.77;;;16.70;99.90;;;;;;497436;239;28758;-74
2023/09/15 08:50:38;;;;;;;4.17;3.77;;;16.70;99.90;;;;;;497467;239;28711;-74
2023/09/15 08:52:40;;;;;;;6.93;4.07;;;16.70;99.90;;;;;;497467;239;28754;-75
2023/09/15 08:54:41;;;;;;;5.60;4.40;;;16.60;99.90;;;;;;497408;239;28747;-75
2023/09/15 08:56:42;;;;;;;4.13;3.73;;;17.00;99.90;;;;;;497439;239;28691;-77
2023/09/15 08:58:49;;;;;;;7.00;4.37;;;17.50;99.90;;;;;;497473;239;28679;-75
2023/09/15 09:00:50;;;;;;;6.63;4.50;;;17.70;99.90;;;;;;497478;239;28726;-75
2023/09/15 09:02:52;;;;;;;4.20;3.60;;;17.90;99.90;;;;;;497404;239;28681;-73
2023/09/15 09:04:56;;;;;;;7.37;4.07;;;17.90;99.90;;;;;;497421;239;28731;-76
2023/09/15 09:06:58;;;;;;;4.30;3.83;;;17.90;99.90;;;;;;497382;239;28716;-75
2023/09/15 09:09:00;;;;;;;6.10;4.60;;;18.00;99.90;;;;;;488652;239;28778;-77
2023/09/15 09:11:02;;;;;;;5.73;4.27;;;18.10;99.90;;;;;;484236;245;28799;-74
2023/09/15 09:13:03;;;;;;;4.73;3.97;;;18.20;99.90;;;;;;484277;245;28898;-77
2023/09/15 09:15:04;;;;;;;6.03;3.80;;;18.20;99.90;;;;;;484293;245;29220;-75
2023/09/15 09:17:05;;;;;;;7.50;4.70;;;18.50;99.90;;;;;;484259;245;29291;-72
2023/09/15 09:19:06;;;;;;;4.57;4.17;;;18.50;99.90;;;;;;484225;245;30110;-74
2023/09/15 09:21:08;;;;;;;4.83;4.00;;;18.30;99.90;;;;;;484310;245;28760;-75
2023/09/15 09:23:09;;;;;;;7.03;4.30;;;18.20;99.90;;;;;;484310;245;28776;-76
2023/09/15 09:25:10;;;;;;;6.07;5.33;;;18.20;99.90;;;;;;484298;245;29189;-75
2023/09/15 09:27:11;;;;;;;6.17;4.50;;;18.60;99.90;;;;;;484329;245;29328;-75
2023/09/15 09:29:21;;;;;;;5.90;4.40;;;18.70;99.90;;;;;;484349;245;29274;-76
2023/09/15 09:31:24;;;;;;;7.60;4.60;;;18.90;99.90;;;;;;484298;245;28785;-75
2023/09/15 09:33:23;;;;;;;5.93;4.23;;;18.80;99.90;;;;;;484270;245;28773;-76
2023/09/15 09:35:25;;;;;;;5.03;3.97;;;18.80;99.90;;;;;;484352;245;28811;-79
2023/09/15 09:37:38;;;;;;;6.60;4.77;;;18.80;99.90;;;;;;484335;245;28756;-75
2023/09/15 09:39:39;;;;;;;6.47;4.23;;;18.90;99.90;;;;;;484315;245;28924;-75
2023/09/15 09:41:41;;;;;;;5.80;4.70;;;18.90;99.90;;;;;;484299;245;28760;-74
2023/09/15 09:43:51;;;;;;;5.13;4.63;;;18.90;99.90;;;;;;484295;244;29246;-76
2023/09/15 09:45:52;;;;;;;5.23;4.40;;;18.90;99.90;;;;;;484326;245;28814;-75
2023/09/15 09:47:54;;;;;;;4.73;4.13;;;19.00;99.90;;;;;;484328;245;28760;-75
2023/09/15 09:49:59;;;;;;;7.80;4.00;;;19.00;99.90;;;;;;484340;245;28787;-79
2023/09/15 09:52:00;;;;;;;4.93;4.00;;;19.20;99.90;;;;;;484319;245;28769;-75
2023/09/15 09:54:02;;;;;;;4.80;4.40;;;19.20;99.90;;;;;;484315;245;28875;-75
2023/09/15 09:56:03;;;;;;;5.30;4.80;;;19.40;99.90;;;;;;484291;245;28755;-74
2023/09/15 09:58:09;;;;;;;7.27;4.77;;;19.30;99.90;;;;;;484636;242;28866;-75
2023/09/15 10:02:11;;;;;;;5.20;3.73;;;19.40;99.90;;;;;;491453;241;28790;-74
2023/09/15 10:04:12;;;;;;;4.43;4.03;;;19.60;99.90;;;;;;491430;241;28801;-75
2023/09/15 10:06:13;;;;;;;3.87;3.57;;;19.80;99.90;;;;;;491484;241;29196;-75
2023/09/15 10:08:27;;;;;;;4.80;4.10;;;19.60;99.90;;;;;;491458;241;29290;-75
2023/09/15 10:10:28;;;;;;;10.27;3.97;;;19.90;99.90;;;;;;491464;241;28731;-75
2023/09/15 10:12:29;;;;;;;3.67;3.37;;;20.10;99.90;;;;;;491458;241;28707;-75
2023/09/15 10:14:30;;;;;;;5.17;4.10;;;20.00;99.90;;;;;;491511;241;28738;-75
2023/09/15 10:16:44;;;;;;;5.87;4.10;;;20.10;99.90;;;;;;491493;241;28845;-77
2023/09/15 10:18:45;;;;;;;4.83;3.80;;;20.00;99.90;;;;;;491446;241;28762;-75
2023/09/15 10:20:47;;;;;;;5.33;4.00;;;20.00;99.90;;;;;;491490;241;28789;-75
2023/09/15 10:22:48;;;;;;;4.13;3.73;;;20.00;99.90;;;;;;491507;241;29213;-75
2023/09/15 10:24:49;;;;;;;4.17;3.87;;;20.00;99.90;;;;;;491476;241;29306;-75
2023/09/15 10:26:50;;;;;;;5.97;3.70;;;20.00;99.90;;;;;;491491;241;28767;-74
2023/09/15 10:30:56;;;;;;;3.80;3.50;;;20.40;99.90;;;;;;491396;241;28751;-76
2023/09/15 10:32:57;;;;;;;5.07;3.90;;;20.40;99.90;;;;;;491412;241;28696;-76
2023/09/15 10:34:59;;;;;;;3.87;3.47;;;20.60;99.90;;;;;;491494;241;28715;-75
2023/09/15 10:37:01;;;;;;;5.03;3.80;;;20.50;99.90;;;;;;491487;241;28763;-73
2023/09/15 10:39:01;;;;;;;3.90;3.57;;;20.30;99.90;;;;;;491440;241;29253;-75
2023/09/15 10:41:06;;;;;;;3.60;3.30;;;20.20;99.90;;;;;;491313;241;29226;-74
2023/09/15 10:43:04;;;;;;;4.70;3.80;;;20.30;99.90;;;;;;491400;241;29298;-75
2023/09/15 10:45:05;;;;;;;4.20;3.80;;;20.20;99.90;;;;;;491476;241;28692;-76
2023/09/15 10:47:06;;;;;;;3.77;3.47;;;20.50;99.90;;;;;;491461;241;28727;-75